createdAt,value
2022-12-08T00:08:38.704Z,29.80
2022-12-08T00:18:40.408Z,26.90
2022-12-08T00:28:42.104Z,28.65
2022-12-08T00:38:44.941Z,28.23
2022-12-08T00:48:48.606Z,30.50
2022-12-08T00:58:50.901Z,29.13
2022-12-08T01:08:52.586Z,30.88
2022-12-08T01:18:55.452Z,29.17
2022-12-08T01:29:01.819Z,30.98
2022-12-08T01:39:07.420Z,32.45
2022-12-08T01:49:11.802Z,34.42
2022-12-08T01:59:13.902Z,35.85
2022-12-08T02:09:18.791Z,36.33
2022-12-08T02:19:48.037Z,36.88
2022-12-08T02:30:24.236Z,39.35
2022-12-08T02:40:36.896Z,39.40
2022-12-08T02:50:38.803Z,44.58
2022-12-08T03:00:54.836Z,39.55
2022-12-08T03:11:04.474Z,39.30
2022-12-08T03:21:07.564Z,38.58
2022-12-08T03:31:13.151Z,37.97
2022-12-08T03:41:19.514Z,34.53
2022-12-08T03:51:21.843Z,35.63
2022-12-08T04:01:24.440Z,35.33
2022-12-08T04:11:26.180Z,35.55
2022-12-08T04:21:29.058Z,33.33
2022-12-08T04:31:33.880Z,32.83
2022-12-08T04:41:37.568Z,33.83
2022-12-08T04:51:39.450Z,31.37
2022-12-08T05:01:41.199Z,34.40
2022-12-08T05:11:49.293Z,32.70
2022-12-08T05:21:51.161Z,33.88
2022-12-08T05:31:52.981Z,32.58
2022-12-08T05:41:54.666Z,34.42
2022-12-08T05:52:02.210Z,29.73
2022-12-08T06:02:03.975Z,28.80
2022-12-08T06:12:06.214Z,30.55
2022-12-08T06:22:09.090Z,30.10
2022-12-08T06:32:15.080Z,29.27
2022-12-08T06:42:35.571Z,30.90
2022-12-08T06:52:45.640Z,31.35
2022-12-08T07:02:53.460Z,31.60
2022-12-08T07:13:03.526Z,32.45
2022-12-08T07:23:07.329Z,29.48
2022-12-08T07:33:09.152Z,29.02
2022-12-08T07:43:14.849Z,31.23
2022-12-08T07:53:16.475Z,30.17
2022-12-08T08:03:18.279Z,31.10
2022-12-08T08:13:20.927Z,29.27
2022-12-08T08:23:22.765Z,30.40
2022-12-08T08:33:26.279Z,27.80
2022-12-08T08:43:37.619Z,30.43
2022-12-08T08:53:42.550Z,33.92
2022-12-08T09:03:44.924Z,34.63
2022-12-08T09:13:51.743Z,31.70
2022-12-08T09:23:56.656Z,31.98
2022-12-08T09:33:59.550Z,33.53
2022-12-08T09:44:13.346Z,31.95
2022-12-08T09:54:22.812Z,31.23
2022-12-08T10:04:43.003Z,30.38
2022-12-08T10:14:57.207Z,29.30
2022-12-08T10:35:18.125Z,33.80
2022-12-08T10:45:38.658Z,26.88
2022-12-08T10:55:49.481Z,25.52
2022-12-08T11:05:55.656Z,26.77
2022-12-08T11:16:01.750Z,26.67
2022-12-08T11:26:23.820Z,23.40
2022-12-08T11:36:29.940Z,17.70
2022-12-08T11:46:40.976Z,15.98
2022-12-08T11:56:54.169Z,13.85
2022-12-08T12:07:33.047Z,12.53
2022-12-08T12:17:53.396Z,13.27
2022-12-08T12:28:06.913Z,13.90
2022-12-08T12:38:40.779Z,13.87
2022-12-08T12:48:43.490Z,14.77
2022-12-08T12:58:49.288Z,14.75
2022-12-08T13:08:56.371Z,14.30
2022-12-08T13:19:03.814Z,14.00
2022-12-08T13:29:20.519Z,13.30
2022-12-08T13:39:35.825Z,14.30
2022-12-08T14:00:15.928Z,16.38
2022-12-08T14:10:24.779Z,15.37
2022-12-08T14:20:29.787Z,16.48
2022-12-08T14:30:32.925Z,15.32
2022-12-08T14:40:38.276Z,16.30
2022-12-08T14:50:44.681Z,16.30
2022-12-08T15:00:52.687Z,16.58
2022-12-08T15:11:33.590Z,15.77
2022-12-08T15:21:40.328Z,17.25
2022-12-08T15:31:43.399Z,18.30
2022-12-08T15:41:45.053Z,17.30
2022-12-08T15:51:47.576Z,17.98
2022-12-08T16:01:50.731Z,17.88
2022-12-08T16:12:11.952Z,20.50
2022-12-08T16:32:46.941Z,20.35
2022-12-08T16:42:50.547Z,19.05
2022-12-08T16:53:06.151Z,21.08
2022-12-08T17:03:09.163Z,20.20
2022-12-08T17:13:13.099Z,19.23
2022-12-08T17:23:21.259Z,17.73
2022-12-08T17:33:27.644Z,17.92
2022-12-08T17:43:31.798Z,15.43
2022-12-08T17:53:40.868Z,18.73
2022-12-08T18:03:45.725Z,16.95
2022-12-08T18:13:48.795Z,16.42
2022-12-08T18:23:51.066Z,14.65
2022-12-08T18:33:55.174Z,15.35
2022-12-08T18:43:58.600Z,15.68
2022-12-08T18:54:01.535Z,15.70
2022-12-08T19:14:30.832Z,15.38
2022-12-08T19:24:36.910Z,14.32
2022-12-08T19:34:39.759Z,16.60
2022-12-08T19:44:55.292Z,17.25
2022-12-08T19:54:59.717Z,16.40
2022-12-08T20:05:02.756Z,18.08
2022-12-08T20:15:12.007Z,20.65
2022-12-08T20:25:20.806Z,20.45
2022-12-08T20:35:23.766Z,19.50
2022-12-08T20:45:29.586Z,19.60
2022-12-08T20:55:36.414Z,20.48
2022-12-08T21:05:42.447Z,21.13
2022-12-08T21:15:49.166Z,21.20
2022-12-08T21:25:51.210Z,20.75
2022-12-08T21:36:08.207Z,21.38
2022-12-08T21:46:20.846Z,23.27
2022-12-08T21:56:23.839Z,23.60
2022-12-08T22:06:25.796Z,25.52
2022-12-08T22:16:36.136Z,24.08
2022-12-08T22:26:45.064Z,24.98
2022-12-08T22:36:49.126Z,25.40
2022-12-08T22:46:57.259Z,25.25
2022-12-08T22:57:00.133Z,24.38
2022-12-08T23:07:04.238Z,25.38
2022-12-08T23:17:06.127Z,27.05
2022-12-08T23:27:08.277Z,25.42
2022-12-08T23:37:12.234Z,26.17
2022-12-08T23:47:14.336Z,25.67
2022-12-08T23:57:19.539Z,25.42
